Time;durP1;ratioP1;P1;durP2;ratioP2;P2;SDS_P1;SDS_P2;PMS_P1;PMS_P2;Temp;Humidity;BMP_temperature;BMP_pressure;BME280_temperature;BME280_humidity;BME280_pressure;Samples;Min_cycle;Max_cycle;Signal;HPM_P1;HPM_P2
2022/02/18 00:00:05;;;;;;;11.55;2.30;;;13.50;56.60;;;;;;2289025;56;21023;-74
2022/02/18 00:02:32;;;;;;;11.23;2.28;;;13.50;56.50;;;;;;2405491;54;20933;-73
2022/02/18 00:04:59;;;;;;;11.32;2.37;;;13.50;56.60;;;;;;2288698;56;20980;-74
2022/02/18 00:07:30;;;;;;;9.63;2.17;;;13.50;56.60;;;;;;2315063;55;21016;-74
2022/02/18 00:09:57;;;;;;;11.48;2.15;;;13.50;56.70;;;;;;2288957;56;21403;-73
2022/02/18 00:12:23;;;;;;;7.87;1.85;;;13.50;56.70;;;;;;2313860;55;20978;-74
2022/02/18 00:14:50;;;;;;;10.25;2.15;;;13.50;56.80;;;;;;2287537;55;20960;-74
2022/02/18 00:17:17;;;;;;;10.52;2.22;;;13.50;56.90;;;;;;2362073;55;21787;-73
2022/02/18 00:19:43;;;;;;;10.63;2.20;;;13.50;56.60;;;;;;2288883;56;21406;-74
2022/02/18 00:22:10;;;;;;;10.05;1.83;;;13.50;56.80;;;;;;2435094;54;20961;-74
2022/02/18 00:24:37;;;;;;;10.32;2.10;;;13.50;56.80;;;;;;2289574;55;21105;-73
2022/02/18 00:27:04;;;;;;;7.35;1.90;;;13.50;56.80;;;;;;2273815;55;20969;-74
2022/02/18 00:29:30;;;;;;;10.80;1.95;;;13.50;56.90;;;;;;2261165;56;20949;-74
2022/02/18 00:31:57;;;;;;;9.10;2.22;;;13.50;56.90;;;;;;2343000;55;21394;-73
2022/02/18 00:34:24;;;;;;;9.32;2.08;;;13.50;56.90;;;;;;2288679;56;21024;-74
2022/02/18 00:36:50;;;;;;;10.10;2.20;;;13.50;56.90;;;;;;2524255;55;20937;-74
2022/02/18 00:39:17;;;;;;;8.02;1.95;;;13.50;56.90;;;;;;2331118;54;20937;-73
2022/02/18 00:41:43;;;;;;;9.57;2.33;;;13.50;57.00;;;;;;2317014;55;21397;-73
2022/02/18 00:44:10;;;;;;;8.07;2.22;;;13.50;56.80;;;;;;2371777;55;21682;-73
2022/02/18 00:46:37;;;;;;;8.30;1.90;;;13.50;57.00;;;;;;2428216;54;20957;-74
2022/02/18 00:49:03;;;;;;;8.05;1.67;;;13.50;57.10;;;;;;2293356;55;21915;-73
2022/02/18 00:51:30;;;;;;;10.18;2.22;;;13.50;57.10;;;;;;2288793;56;20989;-73
2022/02/18 00:53:56;;;;;;;11.65;2.47;;;13.50;57.10;;;;;;2288971;56;21003;-73
2022/02/18 00:56:25;;;;;;;8.48;2.20;;;13.50;56.90;;;;;;2288135;55;20962;-73
2022/02/18 00:58:52;;;;;;;7.22;1.80;;;13.50;57.00;;;;;;2288780;55;20936;-74
2022/02/18 01:01:19;;;;;;;13.27;1.92;;;13.50;57.10;;;;;;2317305;55;20937;-73
2022/02/18 01:03:45;;;;;;;5.97;1.60;;;13.50;57.10;;;;;;2339684;55;21004;-74
2022/02/18 01:06:15;;;;;;;8.68;1.90;;;13.60;57.30;;;;;;2289446;56;20952;-73
2022/02/18 01:08:43;;;;;;;8.85;1.77;;;13.50;57.10;;;;;;2357676;55;20976;-73
2022/02/18 01:11:09;;;;;;;9.95;2.25;;;13.50;57.20;;;;;;2288977;55;21028;-74
2022/02/18 01:13:36;;;;;;;9.90;1.85;;;13.50;57.40;;;;;;2288726;56;20981;-73
2022/02/18 01:16:03;;;;;;;11.60;2.10;;;13.50;57.40;;;;;;2354151;54;21030;-74
2022/02/18 01:18:30;;;;;;;10.35;2.20;;;13.50;57.20;;;;;;2292710;55;21347;-73
2022/02/18 01:20:56;;;;;;;11.80;1.95;;;13.50;57.40;;;;;;2371535;55;21051;-73
2022/02/18 01:23:23;;;;;;;9.65;2.25;;;13.50;57.50;;;;;;2289113;56;20969;-73
2022/02/18 01:25:49;;;;;;;13.20;2.50;;;13.60;57.60;;;;;;2289149;56;21027;-73
2022/02/18 01:28:16;;;;;;;8.25;1.80;;;13.60;57.60;;;;;;2289119;56;21399;-73
2022/02/18 01:30:42;;;;;;;12.68;2.33;;;13.60;57.50;;;;;;2288899;56;20953;-74
2022/02/18 01:33:09;;;;;;;8.43;1.90;;;13.60;57.70;;;;;;2289572;55;21053;-74
2022/02/18 01:35:36;;;;;;;8.77;2.17;;;13.60;57.70;;;;;;2267730;55;21045;-73
2022/02/18 01:38:03;;;;;;;7.82;1.65;;;13.60;57.60;;;;;;2287710;55;21191;-73
2022/02/18 01:40:31;;;;;;;7.60;1.70;;;13.60;57.70;;;;;;2292688;55;21018;-73
2022/02/18 01:42:58;;;;;;;8.38;2.10;;;13.60;57.70;;;;;;2285798;55;20977;-74
2022/02/18 01:45:24;;;;;;;9.02;1.85;;;13.60;57.80;;;;;;2284839;55;20952;-74
2022/02/18 01:47:50;;;;;;;6.55;1.70;;;13.60;57.80;;;;;;2288896;56;20948;-74
2022/02/18 01:50:17;;;;;;;9.15;2.25;;;13.60;58.40;;;;;;2380260;55;20977;-74
2022/02/18 01:52:50;;;;;;;10.25;1.90;;;13.60;57.90;;;;;;2387424;54;20950;-74
2022/02/18 01:55:17;;;;;;;9.25;2.22;;;13.60;57.90;;;;;;2287702;55;21005;-73
2022/02/18 01:57:46;;;;;;;10.32;2.00;;;13.60;57.90;;;;;;2288734;55;21485;-74
2022/02/18 02:00:13;;;;;;;8.32;1.58;;;13.60;57.90;;;;;;2389905;55;20973;-73
2022/02/18 02:02:40;;;;;;;9.50;2.03;;;13.60;57.90;;;;;;2292236;55;20978;-73
2022/02/18 02:05:07;;;;;;;8.75;2.30;;;13.60;57.90;;;;;;2430511;54;21447;-74
2022/02/18 02:07:34;;;;;;;8.52;2.03;;;13.60;57.80;;;;;;2289808;55;20956;-73
2022/02/18 02:10:00;;;;;;;9.73;2.08;;;13.60;57.90;;;;;;2293876;55;21480;-74
2022/02/18 02:12:29;;;;;;;8.73;1.98;;;13.60;57.90;;;;;;2288594;55;21067;-73
2022/02/18 02:14:55;;;;;;;8.43;2.15;;;13.60;57.80;;;;;;2289123;56;21453;-74
2022/02/18 02:17:23;;;;;;;11.32;1.90;;;13.60;57.90;;;;;;2289315;56;20985;-73
2022/02/18 02:19:50;;;;;;;10.80;2.28;;;13.60;57.90;;;;;;2379367;55;21116;-73
2022/02/18 02:22:21;;;;;;;8.80;1.85;;;13.60;57.90;;;;;;2296472;55;21413;-73
2022/02/18 02:24:47;;;;;;;9.60;1.80;;;13.60;57.90;;;;;;2361160;55;21785;-74
2022/02/18 02:27:16;;;;;;;9.32;1.80;;;13.60;58.00;;;;;;2289662;55;20985;-73
2022/02/18 02:29:43;;;;;;;11.88;2.28;;;13.60;58.00;;;;;;2385216;55;21149;-73
2022/02/18 02:32:10;;;;;;;7.30;2.08;;;13.60;57.90;;;;;;2285956;55;20940;-74
2022/02/18 02:34:36;;;;;;;9.05;2.35;;;13.60;58.00;;;;;;2295774;55;21954;-73
2022/02/18 02:37:03;;;;;;;7.55;2.00;;;13.60;57.90;;;;;;2289067;56;20961;-74
2022/02/18 02:39:31;;;;;;;10.25;2.05;;;13.60;57.90;;;;;;2293928;55;21000;-74
2022/02/18 02:42:02;;;;;;;7.43;2.17;;;13.60;57.90;;;;;;2288605;56;20972;-74
2022/02/18 02:44:28;;;;;;;15.35;2.55;;;13.60;57.80;;;;;;2361540;55;21016;-74
2022/02/18 02:46:55;;;;;;;7.40;1.52;;;13.60;57.90;;;;;;2289189;56;21615;-73
2022/02/18 02:49:21;;;;;;;8.30;2.10;;;13.60;57.80;;;;;;2289006;56;21016;-73
2022/02/18 02:51:49;;;;;;;12.02;2.10;;;13.60;57.60;;;;;;2290682;55;20933;-73
2022/02/18 02:54:15;;;;;;;10.35;1.98;;;13.60;57.70;;;;;;2307846;55;21866;-73
2022/02/18 02:56:42;;;;;;;11.02;2.55;;;13.50;57.50;;;;;;2289116;56;20940;-74
2022/02/18 02:59:09;;;;;;;8.75;1.75;;;13.60;57.50;;;;;;2347188;55;21659;-73
2022/02/18 03:01:36;;;;;;;10.30;1.98;;;13.60;57.70;;;;;;2288651;56;20948;-74
2022/02/18 03:04:02;;;;;;;9.02;2.00;;;13.60;57.50;;;;;;2288439;56;20956;-73
2022/02/18 03:06:29;;;;;;;7.22;1.42;;;13.50;57.50;;;;;;2287464;55;21395;-73
2022/02/18 03:08:56;;;;;;;7.87;1.70;;;13.60;57.70;;;;;;2292654;55;21054;-73
2022/02/18 03:11:26;;;;;;;6.28;1.90;;;13.60;57.70;;;;;;2289273;55;21608;-73
2022/02/18 03:13:54;;;;;;;9.25;1.48;;;13.60;57.60;;;;;;2322842;55;21076;-73
2022/02/18 03:16:21;;;;;;;9.93;1.73;;;13.60;57.70;;;;;;2288568;56;20940;-74
2022/02/18 03:18:47;;;;;;;6.18;1.90;;;13.50;57.60;;;;;;2290916;55;20975;-74
2022/02/18 03:21:16;;;;;;;4.43;1.20;;;13.50;57.70;;;;;;2288633;55;21026;-74
2022/02/18 03:23:51;;;;;;;6.03;1.35;;;13.60;57.80;;;;;;2280554;55;20956;-73
2022/02/18 03:26:19;;;;;;;9.88;1.83;;;13.50;57.60;;;;;;2288778;56;21032;-74
2022/02/18 03:28:48;;;;;;;9.93;2.05;;;13.50;57.70;;;;;;2292535;55;20966;-73
2022/02/18 03:31:14;;;;;;;7.85;1.80;;;13.50;57.60;;;;;;2355744;54;2695104;-74
2022/02/18 03:33:40;;;;;;;8.57;1.80;;;13.50;57.60;;;;;;2404817;54;21025;-74
2022/02/18 03:36:07;;;;;;;5.47;1.77;;;13.60;57.70;;;;;;2313798;55;21008;-73
2022/02/18 03:38:34;;;;;;;10.85;1.75;;;13.50;57.70;;;;;;2288760;56;20924;-74
2022/02/18 03:41:01;;;;;;;8.75;1.83;;;13.60;57.80;;;;;;2288575;56;21018;-74
2022/02/18 03:43:27;;;;;;;11.50;1.85;;;13.60;57.80;;;;;;2288828;56;21448;-73
2022/02/18 03:45:54;;;;;;;7.15;1.87;;;13.60;57.80;;;;;;2288901;56;20960;-74
2022/02/18 03:48:20;;;;;;;11.30;1.73;;;13.60;57.60;;;;;;2288919;56;21773;-73
2022/02/18 03:50:47;;;;;;;12.48;2.20;;;13.60;57.60;;;;;;2289214;56;21104;-74
2022/02/18 03:53:14;;;;;;;10.18;1.92;;;13.70;57.60;;;;;;2288413;55;20921;-73
2022/02/18 03:55:41;;;;;;;11.90;2.10;;;13.70;57.70;;;;;;2289009;55;20968;-73
2022/02/18 03:58:07;;;;;;;12.07;2.05;;;13.70;57.50;;;;;;2318315;55;20978;-73
2022/02/18 04:00:34;;;;;;;6.95;1.60;;;13.70;57.50;;;;;;2286422;55;21394;-74
2022/02/18 04:03:00;;;;;;;9.18;1.83;;;13.70;57.50;;;;;;2287140;55;20990;-73
2022/02/18 04:05:29;;;;;;;7.90;1.70;;;13.70;57.50;;;;;;2265221;56;21056;-74
2022/02/18 04:07:55;;;;;;;8.50;1.60;;;13.70;57.50;;;;;;2288644;55;20964;-74
2022/02/18 04:10:21;;;;;;;6.93;1.77;;;13.70;57.60;;;;;;2288082;55;20963;-74
2022/02/18 04:12:48;;;;;;;9.32;2.10;;;13.70;57.60;;;;;;2291298;55;21004;-74
2022/02/18 04:15:14;;;;;;;8.68;1.83;;;13.70;57.70;;;;;;2289090;56;20956;-73
2022/02/18 04:17:40;;;;;;;12.73;1.87;;;13.70;57.70;;;;;;2472020;54;21679;-73
2022/02/18 04:20:07;;;;;;;8.40;1.67;;;13.70;57.90;;;;;;2289063;56;21567;-73
2022/02/18 04:23:03;;;;;;;9.80;1.70;;;13.70;58.00;;;;;;2327319;55;21010;-74
2022/02/18 04:25:31;;;;;;;9.82;1.73;;;13.70;58.20;;;;;;2439714;54;21073;-74
2022/02/18 04:27:59;;;;;;;6.22;1.75;;;13.80;58.40;;;;;;2269384;55;20969;-74
2022/02/18 04:30:25;;;;;;;10.13;2.42;;;13.80;58.40;;;;;;2289033;56;21370;-74
2022/02/18 04:32:52;;;;;;;9.00;2.08;;;13.80;58.50;;;;;;2362292;55;20999;-74
2022/02/18 04:35:18;;;;;;;7.97;1.52;;;13.80;58.40;;;;;;2298261;55;20956;-73
2022/02/18 04:37:45;;;;;;;8.13;1.70;;;13.90;58.70;;;;;;2328656;55;21002;-73
2022/02/18 04:40:12;;;;;;;6.60;1.73;;;13.90;58.70;;;;;;2289022;56;21518;-73
2022/02/18 04:42:38;;;;;;;7.47;1.83;;;13.90;58.70;;;;;;2288396;55;20968;-74
2022/02/18 04:45:05;;;;;;;9.43;2.03;;;13.90;58.70;;;;;;2348913;55;21453;-74
2022/02/18 04:47:31;;;;;;;9.20;1.85;;;14.00;58.80;;;;;;2288975;56;21047;-73
2022/02/18 04:49:58;;;;;;;7.72;1.65;;;14.00;58.90;;;;;;2295269;54;21069;-74
2022/02/18 04:52:24;;;;;;;11.12;2.30;;;14.10;58.90;;;;;;2288970;56;20941;-73
2022/02/18 04:54:53;;;;;;;8.38;1.60;;;14.10;58.90;;;;;;2289315;56;21639;-73
2022/02/18 04:57:20;;;;;;;9.40;1.73;;;14.10;59.00;;;;;;2288417;56;21612;-74
2022/02/18 04:59:46;;;;;;;6.95;1.62;;;14.10;59.10;;;;;;2288310;56;20940;-74
2022/02/18 05:02:14;;;;;;;10.35;1.58;;;14.20;59.20;;;;;;2287685;56;20981;-74
2022/02/18 05:04:40;;;;;;;9.20;2.33;;;14.20;59.20;;;;;;2288760;56;21016;-74
2022/02/18 05:07:08;;;;;;;8.45;1.30;;;14.30;59.80;;;;;;2289020;56;21004;-73
2022/02/18 05:09:34;;;;;;;8.73;1.77;;;14.30;59.20;;;;;;2288395;56;21074;-73
2022/02/18 05:12:01;;;;;;;7.47;1.33;;;14.30;59.20;;;;;;2288954;56;20996;-73
2022/02/18 05:14:27;;;;;;;6.82;1.20;;;14.40;59.30;;;;;;2288287;56;21028;-73
2022/02/18 05:16:53;;;;;;;6.10;1.62;;;14.40;59.30;;;;;;2290787;55;21006;-74
2022/02/18 05:19:20;;;;;;;6.82;1.50;;;14.40;59.30;;;;;;2303604;55;21005;-73
2022/02/18 05:21:47;;;;;;;6.85;1.42;;;14.40;59.10;;;;;;2288999;55;21529;-74
2022/02/18 05:24:13;;;;;;;7.50;1.60;;;14.50;59.20;;;;;;2478003;55;20977;-74
2022/02/18 05:26:42;;;;;;;6.43;1.70;;;14.50;59.20;;;;;;2288096;55;21036;-73
2022/02/18 05:29:08;;;;;;;7.78;1.52;;;14.60;59.20;;;;;;2289151;56;20953;-73
2022/02/18 05:31:36;;;;;;;7.72;1.58;;;14.60;59.20;;;;;;2421952;55;21055;-73
2022/02/18 05:34:02;;;;;;;3.45;1.10;;;14.60;59.00;;;;;;2288573;56;21001;-74
2022/02/18 05:36:28;;;;;;;8.88;1.65;;;14.60;59.10;;;;;;2288973;56;21020;-74
2022/02/18 05:38:54;;;;;;;6.97;1.27;;;14.60;59.10;;;;;;2289293;55;20981;-74
2022/02/18 05:41:21;;;;;;;7.90;1.05;;;14.70;59.00;;;;;;2286971;55;20969;-73
2022/02/18 05:43:48;;;;;;;4.95;1.10;;;14.70;59.10;;;;;;2289130;56;21036;-74
2022/02/18 05:46:14;;;;;;;8.90;1.42;;;14.70;59.10;;;;;;2290782;55;20998;-73
2022/02/18 05:48:41;;;;;;;6.05;1.25;;;14.70;58.90;;;;;;2286610;55;21454;-74
2022/02/18 05:51:08;;;;;;;5.22;1.37;;;14.70;59.00;;;;;;2296089;55;21532;-74
2022/02/18 05:53:35;;;;;;;6.35;1.80;;;14.70;58.80;;;;;;2288782;56;21020;-73
2022/02/18 05:56:02;;;;;;;6.72;1.50;;;14.70;58.90;;;;;;2314619;55;21074;-74
2022/02/18 05:58:32;;;;;;;5.65;1.30;;;14.70;59.00;;;;;;2288056;56;21027;-73
2022/02/18 06:01:00;;;;;;;5.77;1.20;;;14.80;58.80;;;;;;2329036;55;21032;-74
2022/02/18 06:03:27;;;;;;;4.68;1.00;;;14.80;59.00;;;;;;2286911;55;20973;-73
2022/02/18 06:05:53;;;;;;;7.57;1.12;;;14.80;59.00;;;;;;2319041;55;20993;-73
2022/02/18 06:08:20;;;;;;;4.68;1.35;;;14.80;58.80;;;;;;2378082;55;21021;-73
2022/02/18 06:10:46;;;;;;;5.20;1.10;;;14.80;58.90;;;;;;2297071;55;20956;-73
2022/02/18 06:13:12;;;;;;;4.37;1.05;;;14.80;59.00;;;;;;2288248;56;20992;-73
2022/02/18 06:15:39;;;;;;;5.00;1.10;;;14.80;59.00;;;;;;2286907;55;21066;-73
2022/02/18 06:18:06;;;;;;;2.72;0.70;;;14.80;59.20;;;;;;2288630;55;21028;-74
2022/02/18 06:20:33;;;;;;;2.92;0.93;;;14.80;59.30;;;;;;2328298;55;20978;-73
2022/02/18 06:23:00;;;;;;;3.72;0.65;;;14.90;59.50;;;;;;2289086;56;21604;-73
2022/02/18 06:25:26;;;;;;;5.47;1.20;;;14.90;59.50;;;;;;2366361;55;20940;-73
2022/02/18 06:28:10;;;;;;;4.25;0.90;;;14.90;60.00;;;;;;2288441;56;21389;-73
2022/02/18 06:30:40;;;;;;;4.40;1.15;;;14.90;59.40;;;;;;2295383;55;20984;-73
2022/02/18 06:33:07;;;;;;;3.22;0.75;;;14.90;59.30;;;;;;2344147;54;21028;-73
2022/02/18 06:35:34;;;;;;;5.43;1.10;;;14.90;59.20;;;;;;2288785;56;20936;-73
2022/02/18 06:38:00;;;;;;;4.10;1.20;;;14.90;59.30;;;;;;2289147;56;20969;-73
2022/02/18 06:40:27;;;;;;;3.87;1.00;;;14.90;59.30;;;;;;2288876;55;21025;-73
2022/02/18 06:42:53;;;;;;;4.43;1.00;;;14.90;59.30;;;;;;2287306;55;21044;-74
2022/02/18 06:45:20;;;;;;;3.17;0.73;;;15.00;59.20;;;;;;2288943;56;21008;-72
2022/02/18 06:47:50;;;;;;;5.20;1.15;;;15.00;59.20;;;;;;2419723;55;21008;-73
2022/02/18 06:50:17;;;;;;;5.32;0.80;;;15.00;59.30;;;;;;2289283;56;21035;-73
2022/02/18 06:52:44;;;;;;;3.33;0.75;;;15.00;59.30;;;;;;2288719;56;21735;-72
2022/02/18 06:55:11;;;;;;;3.35;0.95;;;15.00;59.00;;;;;;2493501;54;21491;-73
2022/02/18 06:57:44;;;;;;;4.00;0.98;;;15.10;59.10;;;;;;2291095;55;21052;-73
2022/02/18 07:00:13;;;;;;;2.53;0.70;;;15.10;59.10;;;;;;2300115;55;20972;-73
2022/02/18 07:02:39;;;;;;;3.85;0.80;;;15.10;59.10;;;;;;2288445;55;21012;-73
2022/02/18 07:05:12;;;;;;;3.78;0.80;;;15.10;59.20;;;;;;2331170;55;21051;-73
2022/02/18 07:07:39;;;;;;;3.33;0.68;;;15.20;59.10;;;;;;2288858;56;21003;-73
2022/02/18 07:10:06;;;;;;;2.92;0.60;;;15.20;59.20;;;;;;2296152;55;21012;-73
2022/02/18 07:12:32;;;;;;;2.55;0.60;;;15.20;59.30;;;;;;2285755;55;20948;-74
2022/02/18 07:14:59;;;;;;;3.42;0.93;;;15.20;59.30;;;;;;2372763;54;21012;-73
2022/02/18 07:17:29;;;;;;;2.33;0.60;;;15.20;59.20;;;;;;2289019;56;20981;-73
2022/02/18 07:19:56;;;;;;;3.05;0.77;;;15.20;59.00;;;;;;2523257;55;20956;-73
2022/02/18 07:22:25;;;;;;;2.80;0.60;;;15.30;59.10;;;;;;2288945;56;21020;-73
2022/02/18 07:24:52;;;;;;;3.10;0.93;;;15.30;59.10;;;;;;2391615;55;22126;-73
2022/02/18 07:27:19;;;;;;;2.67;0.70;;;15.30;59.20;;;;;;2285445;55;21863;-73
2022/02/18 07:29:45;;;;;;;3.85;0.90;;;15.30;59.30;;;;;;2329057;54;21041;-74
2022/02/18 07:32:13;;;;;;;2.33;0.45;;;15.40;59.10;;;;;;2265191;55;20960;-74
2022/02/18 07:34:39;;;;;;;1.27;0.43;;;15.40;59.10;;;;;;2335802;55;20953;-73
2022/02/18 07:37:06;;;;;;;2.72;0.70;;;15.40;59.40;;;;;;2288777;56;21730;-74
2022/02/18 07:39:33;;;;;;;2.03;0.60;;;15.50;59.20;;;;;;2288620;56;21073;-74
2022/02/18 07:41:59;;;;;;;3.30;0.55;;;15.50;59.30;;;;;;2288972;56;20965;-73
2022/02/18 07:44:26;;;;;;;3.40;0.80;;;15.50;59.30;;;;;;2289473;54;21870;-73
2022/02/18 07:46:52;;;;;;;1.87;0.50;;;15.60;59.10;;;;;;2287090;55;21778;-74
2022/02/18 07:49:30;;;;;;;1.48;0.40;;;15.60;59.10;;;;;;2287572;55;20944;-73
2022/02/18 07:51:56;;;;;;;2.60;0.60;;;15.70;59.20;;;;;;2405739;55;20989;-73
2022/02/18 07:54:23;;;;;;;1.50;0.40;;;15.70;59.00;;;;;;2297666;55;20992;-73
2022/02/18 07:56:49;;;;;;;1.92;0.50;;;15.70;58.80;;;;;;2303429;55;21440;-73
2022/02/18 07:59:15;;;;;;;1.25;0.50;;;15.80;59.10;;;;;;2288400;56;22093;-73
2022/02/18 08:01:42;;;;;;;1.37;0.50;;;15.80;59.20;;;;;;2288448;56;21357;-74
2022/02/18 08:04:08;;;;;;;2.33;0.70;;;15.80;59.10;;;;;;2393490;55;21024;-73
2022/02/18 08:06:35;;;;;;;1.48;0.40;;;15.80;59.10;;;;;;2288963;56;20936;-73
2022/02/18 08:09:02;;;;;;;3.78;0.50;;;15.90;59.20;;;;;;2405991;54;21848;-74
2022/02/18 08:11:29;;;;;;;2.70;0.50;;;15.90;59.20;;;;;;2289619;55;21021;-74
2022/02/18 08:13:58;;;;;;;1.50;0.52;;;15.90;58.90;;;;;;2523671;55;20951;-73
2022/02/18 08:16:26;;;;;;;2.17;0.50;;;16.00;59.00;;;;;;2289106;56;21008;-74
2022/02/18 08:18:54;;;;;;;2.60;0.55;;;16.00;58.90;;;;;;2302985;55;20956;-71
2022/02/18 08:21:20;;;;;;;1.35;0.30;;;16.00;59.00;;;;;;2288826;56;21032;-73
2022/02/18 08:23:49;;;;;;;1.90;0.55;;;16.00;59.10;;;;;;2292899;55;21504;-72
2022/02/18 08:26:15;;;;;;;2.15;0.52;;;16.00;59.00;;;;;;2289078;56;21024;-73
2022/02/18 08:28:43;;;;;;;2.33;0.50;;;16.10;59.10;;;;;;2288682;56;21005;-73
2022/02/18 08:31:09;;;;;;;2.30;0.60;;;16.10;59.10;;;;;;2288661;56;21320;-74
2022/02/18 08:33:36;;;;;;;1.67;0.60;;;16.10;58.90;;;;;;2287967;55;20945;-73
2022/02/18 08:36:04;;;;;;;2.75;0.60;;;16.10;59.00;;;;;;2429538;55;21001;-73
2022/02/18 08:38:30;;;;;;;3.25;0.90;;;16.20;59.10;;;;;;2288563;54;20937;-73
2022/02/18 08:40:57;;;;;;;2.62;0.50;;;16.20;59.10;;;;;;2347960;55;21002;-73
2022/02/18 08:43:24;;;;;;;3.28;0.85;;;16.20;59.10;;;;;;2495470;54;20997;-73
2022/02/18 08:45:50;;;;;;;4.45;0.62;;;16.20;59.00;;;;;;2306329;54;20989;-74
2022/02/18 08:48:17;;;;;;;3.80;0.60;;;16.30;58.90;;;;;;2292052;55;20975;-73
2022/02/18 08:50:45;;;;;;;4.30;0.70;;;16.30;59.00;;;;;;2313198;54;20964;-73
2022/02/18 08:53:13;;;;;;;1.40;0.40;;;16.30;59.10;;;;;;2486764;54;21040;-73
2022/02/18 08:55:39;;;;;;;1.33;0.45;;;16.30;59.10;;;;;;2445036;55;21008;-72
2022/02/18 08:58:08;;;;;;;1.45;0.40;;;16.30;59.20;;;;;;2506299;55;20985;-73
2022/02/18 09:00:35;;;;;;;1.27;0.40;;;16.40;59.20;;;;;;2288897;56;20954;-73
2022/02/18 09:03:01;;;;;;;2.05;0.40;;;16.40;59.20;;;;;;2295386;55;20999;-72
2022/02/18 09:05:29;;;;;;;1.58;0.40;;;16.40;59.20;;;;;;2286849;54;21000;-73
2022/02/18 09:07:56;;;;;;;1.20;0.40;;;16.50;59.30;;;;;;2288993;55;20998;-73
2022/02/18 09:10:23;;;;;;;1.70;0.45;;;16.50;59.30;;;;;;2287629;56;21039;-73
2022/02/18 09:12:49;;;;;;;2.47;0.50;;;16.50;59.30;;;;;;2344057;55;21113;-73
2022/02/18 09:15:18;;;;;;;3.10;0.80;;;16.60;59.00;;;;;;2279893;55;22181;-73
2022/02/18 09:17:44;;;;;;;3.42;0.52;;;16.60;59.20;;;;;;2387480;55;21852;-73
2022/02/18 09:20:12;;;;;;;2.58;0.50;;;16.60;59.10;;;;;;2287652;55;21084;-74
2022/02/18 09:22:38;;;;;;;1.45;0.50;;;16.60;58.50;;;;;;2288476;55;20953;-73
2022/02/18 09:25:06;;;;;;;1.10;0.40;;;16.60;58.30;;;;;;2294633;55;20972;-73
2022/02/18 09:27:34;;;;;;;3.10;0.60;;;16.60;58.30;;;;;;2288223;56;21825;-72
2022/02/18 09:30:02;;;;;;;2.03;0.50;;;16.70;58.30;;;;;;2288350;55;21457;-73
2022/02/18 09:32:28;;;;;;;1.20;0.35;;;16.70;58.40;;;;;;2319522;55;20972;-73
2022/02/18 09:34:58;;;;;;;1.60;0.40;;;16.70;58.40;;;;;;2288158;56;21035;-72
2022/02/18 09:37:26;;;;;;;1.35;0.50;;;16.70;58.20;;;;;;2288886;55;21719;-74
2022/02/18 09:39:52;;;;;;;2.10;0.40;;;16.80;58.40;;;;;;2288509;56;21402;-73
2022/02/18 09:42:20;;;;;;;1.35;0.40;;;16.80;58.30;;;;;;2294909;55;21022;-73
2022/02/18 09:44:46;;;;;;;2.62;0.62;;;16.80;58.20;;;;;;2278471;55;21002;-72
2022/02/18 09:47:12;;;;;;;2.50;0.60;;;16.80;58.20;;;;;;2297476;54;21429;-73
2022/02/18 09:49:40;;;;;;;2.37;0.50;;;16.80;58.10;;;;;;2288613;56;21814;-72
2022/02/18 09:52:07;;;;;;;1.77;0.60;;;16.90;58.20;;;;;;2367387;55;21045;-73
2022/02/18 09:54:34;;;;;;;1.90;0.50;;;16.90;58.20;;;;;;2271259;55;21451;-73
2022/02/18 09:57:00;;;;;;;2.62;0.70;;;16.90;58.20;;;;;;2412651;55;21713;-73
2022/02/18 09:59:28;;;;;;;5.15;0.77;;;16.90;58.10;;;;;;2288479;56;21024;-73
2022/02/18 10:01:56;;;;;;;2.45;0.57;;;17.00;57.80;;;;;;2329499;54;20964;-73
2022/02/18 10:04:24;;;;;;;3.28;0.70;;;17.00;57.90;;;;;;2294357;55;20984;-73
2022/02/18 10:06:50;;;;;;;1.30;0.35;;;17.00;57.70;;;;;;2507213;54;20937;-73
2022/02/18 10:09:42;;;;;;;1.48;0.40;;;17.00;57.70;;;;;;2287891;55;20961;-73
2022/02/18 10:12:09;;;;;;;3.67;0.60;;;17.10;57.40;;;;;;2311047;55;20988;-73
2022/02/18 10:14:55;;;;;;;1.12;0.40;;;17.10;57.60;;;;;;2343238;55;20992;-73
2022/02/18 10:17:22;;;;;;;1.83;0.40;;;17.20;57.30;;;;;;2523435;54;20992;-73
2022/02/18 10:19:54;;;;;;;1.92;0.57;;;17.20;57.40;;;;;;2288502;55;21429;-73
2022/02/18 10:22:25;;;;;;;2.55;0.47;;;17.20;57.50;;;;;;2325749;55;20992;-74
2022/02/18 10:24:54;;;;;;;1.70;0.40;;;17.30;57.70;;;;;;2288679;55;20940;-72
2022/02/18 10:27:22;;;;;;;4.35;0.50;;;17.30;57.40;;;;;;2289129;56;20944;-73
2022/02/18 10:30:00;;;;;;;1.62;0.57;;;17.30;57.60;;;;;;2288691;56;22040;-73
2022/02/18 10:32:27;;;;;;;2.20;0.57;;;17.40;57.30;;;;;;2460324;55;20969;-72
2022/02/18 10:34:58;;;;;;;0.70;0.30;;;17.40;57.80;;;;;;2338916;55;21402;-73
2022/02/18 10:37:27;;;;;;;1.27;0.50;;;17.40;57.70;;;;;;2292073;54;20977;-73
2022/02/18 10:40:14;;;;;;;1.65;0.50;;;17.50;57.70;;;;;;2286283;54;21746;-73
2022/02/18 10:42:41;;;;;;;1.50;0.60;;;17.50;57.20;;;;;;2450303;54;20992;-73
2022/02/18 10:45:22;;;;;;;1.08;0.40;;;17.50;57.70;;;;;;2287541;55;21414;-73
2022/02/18 10:47:49;;;;;;;1.70;0.40;;;17.60;57.40;;;;;;2497852;55;21898;-73
2022/02/18 10:50:17;;;;;;;1.92;0.60;;;17.60;57.70;;;;;;2455733;55;21004;-73
2022/02/18 10:53:51;;;;;;;2.17;0.50;;;17.70;57.90;;;;;;2318541;55;20994;-73
2022/02/18 10:56:21;;;;;;;1.40;0.65;;;17.70;57.20;;;;;;2306781;55;20972;-73
2022/02/18 10:58:49;;;;;;;2.00;0.52;;;17.80;57.80;;;;;;2522359;54;20941;-73
2022/02/18 11:01:43;;;;;;;3.22;0.60;;;17.90;57.80;;;;;;2288658;56;20964;-73
2022/02/18 11:04:10;;;;;;;1.83;0.50;;;17.90;57.70;;;;;;2396047;55;21063;-73
2022/02/18 11:06:37;;;;;;;2.28;0.47;;;18.00;57.80;;;;;;2289304;55;20996;-73
2022/02/18 11:09:10;;;;;;;1.85;0.50;;;18.10;57.90;;;;;;2335326;55;21066;-74
2022/02/18 11:11:44;;;;;;;2.55;0.57;;;18.10;57.70;;;;;;2522156;54;21004;-73
2022/02/18 11:14:12;;;;;;;2.03;0.40;;;18.20;57.90;;;;;;2523553;55;20960;-74
2022/02/18 11:16:53;;;;;;;1.92;0.40;;;18.30;57.70;;;;;;2288460;55;20930;-73
2022/02/18 11:19:20;;;;;;;1.52;0.50;;;18.30;57.50;;;;;;2290975;55;20979;-73
2022/02/18 11:22:01;;;;;;;1.67;0.57;;;18.30;57.40;;;;;;2519277;54;20984;-74
2022/02/18 11:24:28;;;;;;;2.60;0.60;;;18.40;57.30;;;;;;2288524;56;20984;-73
2022/02/18 11:26:55;;;;;;;2.53;0.80;;;18.40;57.30;;;;;;2289259;56;21383;-74
2022/02/18 11:29:21;;;;;;;2.10;0.80;;;18.40;57.10;;;;;;2332239;55;20956;-73
2022/02/18 11:31:58;;;;;;;1.33;0.50;;;18.50;56.80;;;;;;2289220;56;20965;-73
2022/02/18 11:35:35;;;;;;;2.53;0.70;;;18.50;56.20;;;;;;2354321;55;20981;-73
2022/02/18 11:38:24;;;;;;;2.87;0.70;;;18.50;56.00;;;;;;2288803;56;20933;-73
2022/02/18 11:42:01;;;;;;;3.85;0.70;;;18.50;56.40;;;;;;2288114;55;20992;-74
2022/02/18 11:44:30;;;;;;;3.08;0.70;;;18.50;55.50;;;;;;2287838;55;21016;-73
2022/02/18 11:47:18;;;;;;;2.50;0.60;;;18.50;56.00;;;;;;2288640;56;20999;-73
2022/02/18 11:49:46;;;;;;;2.30;0.60;;;18.50;55.70;;;;;;2382676;55;21061;-74
2022/02/18 11:52:14;;;;;;;3.17;0.80;;;18.50;56.30;;;;;;2302254;55;21827;-74
2022/02/18 11:54:41;;;;;;;2.17;0.70;;;18.60;56.40;;;;;;2290174;55;20962;-74
2022/02/18 11:57:17;;;;;;;2.37;0.60;;;18.60;56.50;;;;;;2284786;55;20976;-74
2022/02/18 12:03:25;;;;;;;2.72;0.70;;;18.70;55.40;;;;;;2398855;55;21000;-74
2022/02/18 12:06:09;;;;;;;2.67;0.70;;;18.70;55.90;;;;;;2286917;55;21005;-74
2022/02/18 12:08:38;;;;;;;3.20;0.82;;;18.70;54.70;;;;;;2378921;55;20945;-73
2022/02/18 12:11:19;;;;;;;2.97;1.02;;;18.60;54.40;;;;;;2291052;55;21001;-74
2022/02/18 12:14:13;;;;;;;2.90;0.80;;;18.60;54.10;;;;;;2286071;54;21011;-73
2022/02/18 12:16:41;;;;;;;4.12;1.00;;;18.60;55.10;;;;;;2287078;55;21065;-74
2022/02/18 12:19:09;;;;;;;3.00;0.73;;;18.50;54.90;;;;;;2472826;55;20932;-74
2022/02/18 12:23:25;;;;;;;3.37;0.77;;;18.50;54.70;;;;;;2289508;55;20986;-73
2022/02/18 12:27:44;;;;;;;2.65;0.80;;;18.50;54.30;;;;;;2288608;56;21049;-74
2022/02/18 12:32:02;;;;;;;5.15;1.08;;;18.50;54.70;;;;;;2331823;55;20948;-73
2022/02/18 12:34:28;;;;;;;2.33;0.68;;;18.50;54.60;;;;;;2289255;54;22077;-74
2022/02/18 12:36:56;;;;;;;4.25;0.88;;;18.50;54.80;;;;;;2288033;54;21014;-73
2022/02/18 12:39:42;;;;;;;2.60;0.60;;;18.50;55.00;;;;;;2286780;55;20929;-72
2022/02/18 12:42:16;;;;;;;2.62;0.85;;;18.50;54.80;;;;;;2289066;55;20998;-74
2022/02/18 12:44:55;;;;;;;2.85;0.70;;;18.50;54.80;;;;;;2291048;55;20980;-73
2022/02/18 12:47:29;;;;;;;1.87;0.60;;;18.50;54.60;;;;;;2288683;56;21072;-75
2022/02/18 12:49:58;;;;;;;2.10;0.60;;;18.50;55.00;;;;;;2289318;55;20970;-74
2022/02/18 12:52:28;;;;;;;2.92;0.90;;;18.60;55.10;;;;;;2284974;55;21406;-74
2022/02/18 12:55:04;;;;;;;3.62;1.10;;;18.60;54.90;;;;;;2288201;56;21524;-71
2022/02/18 12:57:34;;;;;;;3.03;0.85;;;18.60;55.10;;;;;;2288506;55;21004;-74
2022/02/18 13:00:08;;;;;;;3.70;0.82;;;18.60;55.00;;;;;;2344378;55;20944;-72
2022/02/18 13:02:59;;;;;;;3.00;0.70;;;18.60;54.90;;;;;;2286818;55;20930;-74